Smohor, Slovenia

12:35 PM CEST on June 25, 2018 (GMT +0200)
KOSTRIVNICA | | Change Station

Elev 1722 ft 46.15 °N, 15.38 °E | Updated 3 seconds ago

Overcast
Overcast
63.5 °F
Feels Like 63.5 °F
N
2.2
Wind Variable Wind from East
Gusts 2.2 mph

Today
High -- | Low -- °F
--% Chance of Precip.
Yesterday
High -- | Low -- °F
Precip. -- in
Pressure 30.12 in
Visibility 6.2 miles
Clouds Few 800 ft
Scattered Clouds 2000 ft
Mostly Cloudy 5000 ft
Dew Point 56 °F
Humidity 75%
Rainfall 0.27 in
Snow Depth Not available.
5:08 AM 8:54 PM
Waxing Gibbous, 93% visible
METAR LJLJ 250930Z 12003KT 080V170 9999 FEW008 SCT020 BKN050 15/13 Q1020 NOSIG
Pressure 30.12 in
Visibility 6.2 miles
Clouds Few 800 ft
Scattered Clouds 2000 ft
Mostly Cloudy 5000 ft
Dew Point 56 °F
Humidity 75%
Rainfall 0.27 in
Snow Depth Not available.
5:08 AM 8:54 PM
Waxing Gibbous, 93% visible
METAR LJLJ 250930Z 12003KT 080V170 9999 FEW008 SCT020 BKN050 15/13 Q1020 NOSIG

Get Severe Weather Alerts

Thanks for signing up!

Be on the lookout for a verification email in your inbox.

You'll start receiving the daily forecast at 6 AM.

×

10-Day Weather Forecast

×

Almanac

Astronomy

Jun. 25, 2018 Rise Set
Actual Time
Civil Twilight
Nautical Twilight
Astronomical Twilight
Moon
Length of Visible Light
Length of Day
Tomorrow will be .
, % of the Moon is Illuminated

Today's Extremes

Country Highs Country Lows

Community

WunderPhotos

Category 6

Welcome to Category 6. This is the collective home for Weather Underground's featured writeups by Dr. Jeff Masters (right), Bob Henson (left), Chris Burt, and other regular contributors.

Nearby

Air Quality

  Air Quality AQ Index Pollutant
Not available.

Snow Depth

Station Depth Elevation

Earthquake Activity

City Distance Mag. Time & Date
Minimum magnitude displayed is 2.5.

Coastal Water Temperatures

Place Temperature

Stations

Nearby Weather Stations

Station Location Temp. Windchill Dew Point Humidity Wind Precip. Elev Updated Type